sensor_id;sensor_type;location;lat;lon;timestamp;pressure;altitude;pressure_sealevel;temperature;humidity
73952;BME280;62304;47.662;18.324;2022-08-21T00:02:20;99834.63;;;19.78;81.30
73952;BME280;62304;47.662;18.324;2022-08-21T00:05:25;99825.78;;;19.63;81.71
73952;BME280;62304;47.662;18.324;2022-08-21T00:08:28;99829.94;;;19.59;81.72
73952;BME280;62304;47.662;18.324;2022-08-21T00:11:31;99832.03;;;19.55;81.90
73952;BME280;62304;47.662;18.324;2022-08-21T00:14:34;99827.03;;;19.62;81.84
73952;BME280;62304;47.662;18.324;2022-08-21T00:17:38;99823.59;;;19.55;82.20
73952;BME280;62304;47.662;18.324;2022-08-21T00:20:42;99820.34;;;19.57;81.74
73952;BME280;62304;47.662;18.324;2022-08-21T00:23:47;99812.84;;;19.66;81.05
73952;BME280;62304;47.662;18.324;2022-08-21T00:26:50;99815.44;;;19.61;81.55
73952;BME280;62304;47.662;18.324;2022-08-21T00:29:53;99816.94;;;19.49;81.73
73952;BME280;62304;47.662;18.324;2022-08-21T00:32:57;99813.16;;;19.56;81.57
73952;BME280;62304;47.662;18.324;2022-08-21T00:36:02;99805.16;;;19.54;81.49
73952;BME280;62304;47.662;18.324;2022-08-21T00:39:06;99800.75;;;19.53;81.48
73952;BME280;62304;47.662;18.324;2022-08-21T00:42:11;99802.16;;;19.45;81.72
73952;BME280;62304;47.662;18.324;2022-08-21T00:45:18;99799.53;;;19.54;81.60
73952;BME280;62304;47.662;18.324;2022-08-21T00:48:22;99785.75;;;19.44;81.77
73952;BME280;62304;47.662;18.324;2022-08-21T00:51:37;99778.00;;;19.48;81.40
73952;BME280;62304;47.662;18.324;2022-08-21T00:54:42;99780.81;;;19.48;81.50
73952;BME280;62304;47.662;18.324;2022-08-21T00:57:51;99780.56;;;19.42;82.10
73952;BME280;62304;47.662;18.324;2022-08-21T01:00:55;99780.56;;;19.42;81.92
73952;BME280;62304;47.662;18.324;2022-08-21T01:03:59;99774.25;;;19.38;81.99
73952;BME280;62304;47.662;18.324;2022-08-21T01:07:02;99763.59;;;19.46;81.58
73952;BME280;62304;47.662;18.324;2022-08-21T01:10:06;99770.09;;;19.42;81.73
73952;BME280;62304;47.662;18.324;2022-08-21T01:13:11;99778.78;;;19.48;81.40
73952;BME280;62304;47.662;18.324;2022-08-21T01:16:17;99776.69;;;19.52;81.38
73952;BME280;62304;47.662;18.324;2022-08-21T01:19:22;99774.19;;;19.54;81.30
73952;BME280;62304;47.662;18.324;2022-08-21T01:22:25;99774.53;;;19.56;81.13
73952;BME280;62304;47.662;18.324;2022-08-21T01:25:29;99769.72;;;19.57;81.13
73952;BME280;62304;47.662;18.324;2022-08-21T01:28:39;99765.75;;;19.54;81.31
73952;BME280;62304;47.662;18.324;2022-08-21T01:31:43;99768.84;;;19.60;81.05
73952;BME280;62304;47.662;18.324;2022-08-21T01:34:48;99768.56;;;19.54;81.40
73952;BME280;62304;47.662;18.324;2022-08-21T01:37:54;99757.09;;;19.49;81.18
73952;BME280;62304;47.662;18.324;2022-08-21T01:40:56;99749.53;;;19.46;81.51
73952;BME280;62304;47.662;18.324;2022-08-21T01:43:59;99754.84;;;19.56;81.19
73952;BME280;62304;47.662;18.324;2022-08-21T01:47:05;99757.87;;;19.49;81.28
73952;BME280;62304;47.662;18.324;2022-08-21T01:50:11;99754.03;;;19.43;81.65
73952;BME280;62304;47.662;18.324;2022-08-21T01:53:14;99745.25;;;19.41;81.60
73952;BME280;62304;47.662;18.324;2022-08-21T01:56:18;99751.91;;;19.47;81.50
73952;BME280;62304;47.662;18.324;2022-08-21T01:59:22;99743.38;;;19.51;81.11
73952;BME280;62304;47.662;18.324;2022-08-21T02:02:25;99739.72;;;19.38;81.60
73952;BME280;62304;47.662;18.324;2022-08-21T02:05:29;99747.53;;;19.46;81.26
73952;BME280;62304;47.662;18.324;2022-08-21T02:08:34;99729.00;;;19.33;81.48
73952;BME280;62304;47.662;18.324;2022-08-21T02:11:39;99739.25;;;19.39;81.38
73952;BME280;62304;47.662;18.324;2022-08-21T02:14:42;99738.06;;;19.52;80.93
73952;BME280;62304;47.662;18.324;2022-08-21T02:17:48;99747.16;;;19.44;81.15
73952;BME280;62304;47.662;18.324;2022-08-21T02:20:52;99737.69;;;19.38;81.46
73952;BME280;62304;47.662;18.324;2022-08-21T02:23:58;99747.31;;;19.53;80.79
73952;BME280;62304;47.662;18.324;2022-08-21T02:27:01;99744.59;;;19.50;80.76
73952;BME280;62304;47.662;18.324;2022-08-21T02:30:04;99741.47;;;19.60;80.50
73952;BME280;62304;47.662;18.324;2022-08-21T02:33:08;99743.09;;;19.73;79.91
73952;BME280;62304;47.662;18.324;2022-08-21T02:36:13;99739.69;;;19.66;80.18
73952;BME280;62304;47.662;18.324;2022-08-21T02:39:16;99739.78;;;19.62;80.11
73952;BME280;62304;47.662;18.324;2022-08-21T02:42:28;99735.09;;;19.72;79.87
73952;BME280;62304;47.662;18.324;2022-08-21T02:45:34;99740.78;;;19.56;80.63
73952;BME280;62304;47.662;18.324;2022-08-21T02:48:38;99729.44;;;19.60;80.30
73952;BME280;62304;47.662;18.324;2022-08-21T02:51:41;99736.28;;;19.46;80.81
73952;BME280;62304;47.662;18.324;2022-08-21T02:54:44;99731.63;;;19.40;81.09
73952;BME280;62304;47.662;18.324;2022-08-21T02:57:48;99741.09;;;19.46;80.66
73952;BME280;62304;47.662;18.324;2022-08-21T03:00:51;99739.09;;;19.46;80.67
73952;BME280;62304;47.662;18.324;2022-08-21T03:03:56;99739.75;;;19.50;80.47
73952;BME280;62304;47.662;18.324;2022-08-21T03:06:59;99736.44;;;19.39;80.54
73952;BME280;62304;47.662;18.324;2022-08-21T03:10:05;99736.66;;;19.32;81.20
73952;BME280;62304;47.662;18.324;2022-08-21T03:13:08;99739.56;;;19.29;81.16
73952;BME280;62304;47.662;18.324;2022-08-21T03:16:13;99732.41;;;19.40;80.78
73952;BME280;62304;47.662;18.324;2022-08-21T03:19:16;99732.75;;;19.42;80.77
73952;BME280;62304;47.662;18.324;2022-08-21T03:22:19;99734.28;;;19.31;81.29
73952;BME280;62304;47.662;18.324;2022-08-21T03:25:24;99733.13;;;19.28;81.68
73952;BME280;62304;47.662;18.324;2022-08-21T03:28:41;99731.12;;;19.29;81.20
73952;BME280;62304;47.662;18.324;2022-08-21T03:31:44;99728.06;;;19.23;81.32
73952;BME280;62304;47.662;18.324;2022-08-21T03:34:47;99727.97;;;19.27;81.07
73952;BME280;62304;47.662;18.324;2022-08-21T03:37:50;99732.00;;;19.26;80.93
73952;BME280;62304;47.662;18.324;2022-08-21T03:40:53;99732.91;;;19.23;81.04
73952;BME280;62304;47.662;18.324;2022-08-21T03:43:56;99731.22;;;19.25;80.79
73952;BME280;62304;47.662;18.324;2022-08-21T03:46:58;99741.03;;;19.17;81.12
73952;BME280;62304;47.662;18.324;2022-08-21T03:50:03;99738.22;;;19.17;80.97
73952;BME280;62304;47.662;18.324;2022-08-21T03:53:07;99738.59;;;19.19;81.14
73952;BME280;62304;47.662;18.324;2022-08-21T03:56:19;99741.78;;;19.21;80.79
73952;BME280;62304;47.662;18.324;2022-08-21T03:59:22;99740.53;;;19.22;80.49
73952;BME280;62304;47.662;18.324;2022-08-21T04:02:25;99748.87;;;19.09;80.59
73952;BME280;62304;47.662;18.324;2022-08-21T04:05:28;99744.66;;;19.17;80.63
73952;BME280;62304;47.662;18.324;2022-08-21T04:08:32;99751.84;;;19.18;80.30
73952;BME280;62304;47.662;18.324;2022-08-21T04:11:35;99753.62;;;19.29;80.14
73952;BME280;62304;47.662;18.324;2022-08-21T04:14:40;99757.03;;;19.20;80.23
73952;BME280;62304;47.662;18.324;2022-08-21T04:17:44;99758.00;;;19.13;80.41
73952;BME280;62304;47.662;18.324;2022-08-21T04:20:50;99752.47;;;19.10;80.66
73952;BME280;62304;47.662;18.324;2022-08-21T04:23:55;99761.78;;;19.07;81.01
73952;BME280;62304;47.662;18.324;2022-08-21T04:26:57;99761.44;;;19.05;80.87
73952;BME280;62304;47.662;18.324;2022-08-21T04:30:01;99763.41;;;18.92;81.09
73952;BME280;62304;47.662;18.324;2022-08-21T04:33:03;99770.16;;;18.95;81.02
73952;BME280;62304;47.662;18.324;2022-08-21T04:36:07;99769.97;;;18.86;81.28
73952;BME280;62304;47.662;18.324;2022-08-21T04:39:11;99771.66;;;18.83;81.30
73952;BME280;62304;47.662;18.324;2022-08-21T04:42:14;99778.84;;;18.84;81.45
73952;BME280;62304;47.662;18.324;2022-08-21T04:45:22;99772.69;;;18.73;81.75
73952;BME280;62304;47.662;18.324;2022-08-21T04:48:26;99775.16;;;18.71;81.80
73952;BME280;62304;47.662;18.324;2022-08-21T04:51:32;99784.03;;;18.70;81.89
73952;BME280;62304;47.662;18.324;2022-08-21T04:54:37;99790.06;;;18.68;81.97
73952;BME280;62304;47.662;18.324;2022-08-21T04:57:40;99792.53;;;18.66;81.92
73952;BME280;62304;47.662;18.324;2022-08-21T05:00:53;99787.34;;;18.65;82.10
73952;BME280;62304;47.662;18.324;2022-08-21T05:03:59;99786.59;;;18.64;82.07
73952;BME280;62304;47.662;18.324;2022-08-21T05:07:05;99790.69;;;18.60;82.32
73952;BME280;62304;47.662;18.324;2022-08-21T05:10:10;99786.81;;;18.54;82.57
73952;BME280;62304;47.662;18.324;2022-08-21T05:13:15;99794.56;;;18.50;82.58
73952;BME280;62304;47.662;18.324;2022-08-21T05:16:18;99796.38;;;18.56;82.34
73952;BME280;62304;47.662;18.324;2022-08-21T05:19:42;99795.44;;;18.63;82.28
73952;BME280;62304;47.662;18.324;2022-08-21T05:22:45;99793.41;;;18.63;82.48
73952;BME280;62304;47.662;18.324;2022-08-21T05:25:48;99789.03;;;18.62;82.24
73952;BME280;62304;47.662;18.324;2022-08-21T05:28:51;99790.25;;;18.61;82.61
73952;BME280;62304;47.662;18.324;2022-08-21T05:31:59;99789.75;;;18.66;82.40
73952;BME280;62304;47.662;18.324;2022-08-21T05:35:04;99796.06;;;18.70;82.42
73952;BME280;62304;47.662;18.324;2022-08-21T05:38:12;99794.84;;;18.71;82.40
73952;BME280;62304;47.662;18.324;2022-08-21T05:41:19;99795.03;;;18.80;82.25
73952;BME280;62304;47.662;18.324;2022-08-21T05:44:22;99789.31;;;18.84;82.11
73952;BME280;62304;47.662;18.324;2022-08-21T05:47:27;99797.47;;;18.78;82.32
73952;BME280;62304;47.662;18.324;2022-08-21T05:50:30;99806.59;;;18.82;82.08
73952;BME280;62304;47.662;18.324;2022-08-21T05:53:35;99807.66;;;18.88;82.04
73952;BME280;62304;47.662;18.324;2022-08-21T05:56:38;99814.00;;;18.92;82.10
73952;BME280;62304;47.662;18.324;2022-08-21T05:59:41;99806.09;;;18.87;82.39
73952;BME280;62304;47.662;18.324;2022-08-21T06:02:44;99807.12;;;18.93;82.09
73952;BME280;62304;47.662;18.324;2022-08-21T06:05:47;99809.75;;;19.00;82.00
73952;BME280;62304;47.662;18.324;2022-08-21T06:08:52;99807.94;;;18.94;82.23
73952;BME280;62304;47.662;18.324;2022-08-21T06:11:56;99814.66;;;18.96;82.08
73952;BME280;62304;47.662;18.324;2022-08-21T06:14:59;99809.22;;;19.05;82.05
73952;BME280;62304;47.662;18.324;2022-08-21T06:18:03;99815.75;;;19.02;81.95
73952;BME280;62304;47.662;18.324;2022-08-21T06:21:07;99808.97;;;19.16;81.62
73952;BME280;62304;47.662;18.324;2022-08-21T06:24:10;99806.78;;;19.23;81.38
73952;BME280;62304;47.662;18.324;2022-08-21T06:27:13;99812.25;;;19.30;81.17
73952;BME280;62304;47.662;18.324;2022-08-21T06:30:18;99802.66;;;19.28;81.16
73952;BME280;62304;47.662;18.324;2022-08-21T06:33:21;99803.44;;;19.28;81.00
73952;BME280;62304;47.662;18.324;2022-08-21T06:36:32;99798.72;;;19.25;81.28
73952;BME280;62304;47.662;18.324;2022-08-21T06:39:35;99794.81;;;19.19;81.14
73952;BME280;62304;47.662;18.324;2022-08-21T06:42:44;99802.75;;;19.24;81.29
73952;BME280;62304;47.662;18.324;2022-08-21T06:45:48;99795.87;;;19.41;80.82
73952;BME280;62304;47.662;18.324;2022-08-21T06:48:51;99795.25;;;19.50;80.85
73952;BME280;62304;47.662;18.324;2022-08-21T06:51:56;99797.94;;;19.53;80.32
73952;BME280;62304;47.662;18.324;2022-08-21T06:55:01;99797.00;;;19.44;80.54
73952;BME280;62304;47.662;18.324;2022-08-21T06:58:05;99799.84;;;19.56;80.39
73952;BME280;62304;47.662;18.324;2022-08-21T07:01:09;99791.69;;;19.62;80.27
73952;BME280;62304;47.662;18.324;2022-08-21T07:04:11;99794.19;;;19.72;80.10
73952;BME280;62304;47.662;18.324;2022-08-21T07:07:14;99799.97;;;19.81;80.04
73952;BME280;62304;47.662;18.324;2022-08-21T07:10:17;99799.53;;;19.83;80.07
73952;BME280;62304;47.662;18.324;2022-08-21T07:13:26;99808.91;;;19.92;79.72
73952;BME280;62304;47.662;18.324;2022-08-21T07:16:29;99805.28;;;19.91;79.74
73952;BME280;62304;47.662;18.324;2022-08-21T07:19:32;99804.94;;;19.89;79.43
73952;BME280;62304;47.662;18.324;2022-08-21T07:22:37;99794.28;;;19.97;79.30
73952;BME280;62304;47.662;18.324;2022-08-21T07:25:41;99793.38;;;20.00;79.37
73952;BME280;62304;47.662;18.324;2022-08-21T07:28:44;99795.56;;;20.08;79.06
73952;BME280;62304;47.662;18.324;2022-08-21T07:31:47;99797.03;;;20.13;79.36
73952;BME280;62304;47.662;18.324;2022-08-21T07:34:51;99795.03;;;20.26;78.73
73952;BME280;62304;47.662;18.324;2022-08-21T07:37:54;99804.97;;;20.43;78.21
73952;BME280;62304;47.662;18.324;2022-08-21T07:40:59;99795.69;;;20.17;78.50
73952;BME280;62304;47.662;18.324;2022-08-21T07:44:04;99792.22;;;20.26;78.53
73952;BME280;62304;47.662;18.324;2022-08-21T07:47:07;99799.97;;;20.22;78.64
73952;BME280;62304;47.662;18.324;2022-08-21T07:50:12;99792.22;;;20.26;78.39
73952;BME280;62304;47.662;18.324;2022-08-21T07:53:15;99786.81;;;20.32;78.25
73952;BME280;62304;47.662;18.324;2022-08-21T07:56:19;99787.50;;;20.35;78.11
73952;BME280;62304;47.662;18.324;2022-08-21T07:59:22;99786.91;;;20.28;78.12
73952;BME280;62304;47.662;18.324;2022-08-21T08:02:27;99791.00;;;20.39;77.89
73952;BME280;62304;47.662;18.324;2022-08-21T08:05:31;99784.22;;;20.37;78.14
73952;BME280;62304;47.662;18.324;2022-08-21T08:08:36;99781.50;;;20.58;77.45
73952;BME280;62304;47.662;18.324;2022-08-21T08:11:41;99768.91;;;20.63;77.60
73952;BME280;62304;47.662;18.324;2022-08-21T08:14:45;99771.25;;;20.77;77.06
73952;BME280;62304;47.662;18.324;2022-08-21T08:17:48;99771.59;;;20.79;77.27
73952;BME280;62304;47.662;18.324;2022-08-21T08:20:52;99773.84;;;20.84;77.16
73952;BME280;62304;47.662;18.324;2022-08-21T08:23:55;99768.00;;;20.91;76.85
73952;BME280;62304;47.662;18.324;2022-08-21T08:26:59;99762.53;;;21.09;76.03
73952;BME280;62304;47.662;18.324;2022-08-21T08:30:04;99747.75;;;21.17;75.68
73952;BME280;62304;47.662;18.324;2022-08-21T08:33:07;99756.91;;;21.43;74.99
73952;BME280;62304;47.662;18.324;2022-08-21T08:36:15;99756.78;;;21.46;74.77
73952;BME280;62304;47.662;18.324;2022-08-21T08:39:21;99746.66;;;21.70;74.31
73952;BME280;62304;47.662;18.324;2022-08-21T08:42:34;99755.84;;;21.83;73.57
73952;BME280;62304;47.662;18.324;2022-08-21T08:45:40;99745.12;;;21.78;73.61
73952;BME280;62304;47.662;18.324;2022-08-21T08:48:54;99749.72;;;21.85;72.70
73952;BME280;62304;47.662;18.324;2022-08-21T08:52:02;99739.84;;;22.41;71.60
73952;BME280;62304;47.662;18.324;2022-08-21T08:55:17;99740.59;;;22.72;70.96
73952;BME280;62304;47.662;18.324;2022-08-21T08:58:31;99735.72;;;23.39;68.60
73952;BME280;62304;47.662;18.324;2022-08-21T09:01:35;99731.09;;;24.05;66.98
73952;BME280;62304;47.662;18.324;2022-08-21T09:04:41;99732.34;;;24.13;66.31
73952;BME280;62304;47.662;18.324;2022-08-21T09:11:21;99723.16;;;24.36;65.62
73952;BME280;62304;47.662;18.324;2022-08-21T09:17:45;99736.50;;;24.77;63.54
73952;BME280;62304;47.662;18.324;2022-08-21T09:27:30;99723.41;;;24.47;63.87
73952;BME280;62304;47.662;18.324;2022-08-21T09:30:33;99728.53;;;24.25;64.85
73952;BME280;62304;47.662;18.324;2022-08-21T09:33:37;99724.22;;;23.88;66.18
73952;BME280;62304;47.662;18.324;2022-08-21T09:36:48;99720.31;;;23.67;65.93
73952;BME280;62304;47.662;18.324;2022-08-21T09:39:53;99716.69;;;23.31;66.75
73952;BME280;62304;47.662;18.324;2022-08-21T09:42:59;99717.44;;;23.13;67.17
73952;BME280;62304;47.662;18.324;2022-08-21T09:46:07;99718.00;;;22.81;68.01
73952;BME280;62304;47.662;18.324;2022-08-21T09:49:29;99710.84;;;23.07;67.50
73952;BME280;62304;47.662;18.324;2022-08-21T09:52:32;99714.44;;;23.08;67.64
73952;BME280;62304;47.662;18.324;2022-08-21T09:55:47;99710.66;;;23.02;67.72
73952;BME280;62304;47.662;18.324;2022-08-21T09:59:17;99701.59;;;23.25;67.23
73952;BME280;62304;47.662;18.324;2022-08-21T10:02:28;99697.94;;;23.15;66.86
73952;BME280;62304;47.662;18.324;2022-08-21T10:05:33;99698.75;;;23.34;66.97
73952;BME280;62304;47.662;18.324;2022-08-21T10:08:38;99696.22;;;23.72;65.93
73952;BME280;62304;47.662;18.324;2022-08-21T10:12:44;99699.97;;;23.87;65.93
73952;BME280;62304;47.662;18.324;2022-08-21T10:19:13;99689.88;;;24.04;65.16
73952;BME280;62304;47.662;18.324;2022-08-21T10:22:24;99689.44;;;24.29;64.56
73952;BME280;62304;47.662;18.324;2022-08-21T10:25:35;99689.97;;;24.51;63.18
73952;BME280;62304;47.662;18.324;2022-08-21T10:29:14;99692.00;;;24.27;64.47
73952;BME280;62304;47.662;18.324;2022-08-21T10:32:34;99690.31;;;24.11;63.97
73952;BME280;62304;47.662;18.324;2022-08-21T10:36:33;99697.84;;;24.23;64.28
73952;BME280;62304;47.662;18.324;2022-08-21T10:39:33;99692.25;;;24.38;63.67
73952;BME280;62304;47.662;18.324;2022-08-21T10:45:49;99699.41;;;24.24;64.18
73952;BME280;62304;47.662;18.324;2022-08-21T10:49:01;99702.34;;;23.79;65.38
73952;BME280;62304;47.662;18.324;2022-08-21T10:55:35;99702.00;;;23.86;65.32
73952;BME280;62304;47.662;18.324;2022-08-21T11:05:31;99693.09;;;23.70;66.29
73952;BME280;62304;47.662;18.324;2022-08-21T11:08:50;99692.16;;;23.55;66.20
73952;BME280;62304;47.662;18.324;2022-08-21T11:12:09;99693.09;;;23.34;66.90
73952;BME280;62304;47.662;18.324;2022-08-21T11:25:37;99696.37;;;23.14;67.84
73952;BME280;62304;47.662;18.324;2022-08-21T11:28:53;99687.72;;;23.09;68.14
73952;BME280;62304;47.662;18.324;2022-08-21T11:38:44;99687.53;;;22.76;68.87
73952;BME280;62304;47.662;18.324;2022-08-21T11:42:02;99693.03;;;22.71;68.70
73952;BME280;62304;47.662;18.324;2022-08-21T11:45:30;99696.47;;;22.66;68.55
73952;BME280;62304;47.662;18.324;2022-08-21T11:52:13;99690.47;;;22.55;70.32
73952;BME280;62304;47.662;18.324;2022-08-21T11:55:34;99690.78;;;22.57;69.02
73952;BME280;62304;47.662;18.324;2022-08-21T11:58:46;99687.28;;;22.44;69.20
73952;BME280;62304;47.662;18.324;2022-08-21T12:01:52;99690.34;;;22.37;69.61
73952;BME280;62304;47.662;18.324;2022-08-21T12:05:12;99685.28;;;22.53;69.18
73952;BME280;62304;47.662;18.324;2022-08-21T12:08:33;99691.06;;;22.50;69.26
73952;BME280;62304;47.662;18.324;2022-08-21T12:12:21;99692.69;;;22.60;69.53
73952;BME280;62304;47.662;18.324;2022-08-21T12:15:27;99689.81;;;22.51;69.61
73952;BME280;62304;47.662;18.324;2022-08-21T12:18:32;99681.87;;;22.37;69.86
73952;BME280;62304;47.662;18.324;2022-08-21T12:25:06;99672.75;;;22.24;69.69
73952;BME280;62304;47.662;18.324;2022-08-21T12:28:12;99680.75;;;22.25;69.81
73952;BME280;62304;47.662;18.324;2022-08-21T12:31:22;99677.31;;;22.30;70.02
73952;BME280;62304;47.662;18.324;2022-08-21T12:34:48;99675.59;;;22.33;69.82
73952;BME280;62304;47.662;18.324;2022-08-21T12:38:00;99675.09;;;22.25;69.99
73952;BME280;62304;47.662;18.324;2022-08-21T12:41:15;99667.44;;;22.35;70.25
73952;BME280;62304;47.662;18.324;2022-08-21T12:44:24;99672.63;;;22.36;70.18
73952;BME280;62304;47.662;18.324;2022-08-21T12:47:34;99660.88;;;22.38;70.12
73952;BME280;62304;47.662;18.324;2022-08-21T12:50:48;99665.37;;;22.26;70.39
73952;BME280;62304;47.662;18.324;2022-08-21T12:53:56;99672.75;;;22.24;70.63
73952;BME280;62304;47.662;18.324;2022-08-21T12:57:04;99659.91;;;22.01;71.22
73952;BME280;62304;47.662;18.324;2022-08-21T13:00:12;99666.50;;;21.98;71.25
73952;BME280;62304;47.662;18.324;2022-08-21T13:03:16;99665.41;;;21.96;72.90
73952;BME280;62304;47.662;18.324;2022-08-21T13:06:22;99662.72;;;21.92;73.82
73952;BME280;62304;47.662;18.324;2022-08-21T13:09:31;99661.69;;;21.77;74.59
73952;BME280;62304;47.662;18.324;2022-08-21T13:12:36;99670.03;;;21.59;76.17
73952;BME280;62304;47.662;18.324;2022-08-21T13:15:41;99673.03;;;21.43;77.63
73952;BME280;62304;47.662;18.324;2022-08-21T13:19:07;99663.88;;;21.30;77.92
73952;BME280;62304;47.662;18.324;2022-08-21T13:22:13;99666.63;;;21.21;81.08
73952;BME280;62304;47.662;18.324;2022-08-21T13:25:36;99672.97;;;21.13;80.92
73952;BME280;62304;47.662;18.324;2022-08-21T13:28:40;99667.66;;;21.15;83.02
73952;BME280;62304;47.662;18.324;2022-08-21T13:31:57;99668.41;;;20.94;84.36
73952;BME280;62304;47.662;18.324;2022-08-21T13:35:09;99667.94;;;20.95;85.53
73952;BME280;62304;47.662;18.324;2022-08-21T13:38:12;99661.75;;;20.88;85.33
73952;BME280;62304;47.662;18.324;2022-08-21T13:44:43;99659.50;;;20.83;85.79
73952;BME280;62304;47.662;18.324;2022-08-21T13:47:45;99666.72;;;20.84;86.14
73952;BME280;62304;47.662;18.324;2022-08-21T13:50:49;99656.34;;;20.81;86.91
73952;BME280;62304;47.662;18.324;2022-08-21T13:53:53;99652.63;;;20.84;87.09
73952;BME280;62304;47.662;18.324;2022-08-21T13:56:57;99649.59;;;20.91;86.34
73952;BME280;62304;47.662;18.324;2022-08-21T14:00:19;99654.22;;;20.85;87.23
73952;BME280;62304;47.662;18.324;2022-08-21T14:06:34;99658.91;;;20.88;86.86
73952;BME280;62304;47.662;18.324;2022-08-21T14:09:42;99652.28;;;20.82;87.18
73952;BME280;62304;47.662;18.324;2022-08-21T14:12:55;99654.97;;;20.51;88.41
73952;BME280;62304;47.662;18.324;2022-08-21T14:16:02;99647.19;;;20.43;89.12
73952;BME280;62304;47.662;18.324;2022-08-21T14:19:11;99645.75;;;20.38;89.24
73952;BME280;62304;47.662;18.324;2022-08-21T14:22:27;99651.25;;;20.42;88.12
73952;BME280;62304;47.662;18.324;2022-08-21T14:28:46;99645.31;;;20.40;87.95
73952;BME280;62304;47.662;18.324;2022-08-21T14:31:53;99646.19;;;20.37;87.94
73952;BME280;62304;47.662;18.324;2022-08-21T14:34:57;99650.94;;;20.27;87.84
73952;BME280;62304;47.662;18.324;2022-08-21T14:38:00;99648.25;;;20.24;87.10
73952;BME280;62304;47.662;18.324;2022-08-21T14:41:25;99655.78;;;20.27;87.20
73952;BME280;62304;47.662;18.324;2022-08-21T14:44:31;99647.69;;;20.29;87.17
73952;BME280;62304;47.662;18.324;2022-08-21T14:47:35;99658.84;;;20.20;89.06
73952;BME280;62304;47.662;18.324;2022-08-21T14:50:39;99665.72;;;20.19;87.65
73952;BME280;62304;47.662;18.324;2022-08-21T14:53:43;99663.13;;;20.12;88.57
73952;BME280;62304;47.662;18.324;2022-08-21T14:56:46;99662.91;;;20.07;88.28
73952;BME280;62304;47.662;18.324;2022-08-21T14:59:55;99662.41;;;19.95;88.75
73952;BME280;62304;47.662;18.324;2022-08-21T15:03:03;99655.75;;;19.89;90.00
73952;BME280;62304;47.662;18.324;2022-08-21T15:06:08;99660.94;;;19.91;89.74
73952;BME280;62304;47.662;18.324;2022-08-21T15:09:12;99650.59;;;19.88;90.23
73952;BME280;62304;47.662;18.324;2022-08-21T15:15:44;99655.19;;;19.82;90.40
73952;BME280;62304;47.662;18.324;2022-08-21T15:18:49;99652.16;;;19.89;90.13
73952;BME280;62304;47.662;18.324;2022-08-21T15:21:52;99650.47;;;19.91;89.69
73952;BME280;62304;47.662;18.324;2022-08-21T15:24:55;99652.72;;;19.84;90.24
73952;BME280;62304;47.662;18.324;2022-08-21T15:27:59;99647.19;;;19.80;89.93
73952;BME280;62304;47.662;18.324;2022-08-21T15:31:02;99649.25;;;19.80;90.12
73952;BME280;62304;47.662;18.324;2022-08-21T15:34:05;99664.19;;;19.77;90.02
73952;BME280;62304;47.662;18.324;2022-08-21T15:37:09;99662.06;;;19.81;89.93
73952;BME280;62304;47.662;18.324;2022-08-21T15:40:13;99650.56;;;19.75;90.02
73952;BME280;62304;47.662;18.324;2022-08-21T15:43:30;99659.91;;;19.73;90.01
73952;BME280;62304;47.662;18.324;2022-08-21T15:46:34;99653.03;;;19.73;90.10
73952;BME280;62304;47.662;18.324;2022-08-21T15:49:37;99652.81;;;19.68;90.60
73952;BME280;62304;47.662;18.324;2022-08-21T15:52:39;99655.28;;;19.66;90.69
73952;BME280;62304;47.662;18.324;2022-08-21T15:55:42;99647.75;;;19.63;90.39
73952;BME280;62304;47.662;18.324;2022-08-21T15:58:46;99650.22;;;19.49;90.89
73952;BME280;62304;47.662;18.324;2022-08-21T16:01:51;99654.22;;;19.48;90.91
73952;BME280;62304;47.662;18.324;2022-08-21T16:04:55;99650.16;;;19.36;91.25
73952;BME280;62304;47.662;18.324;2022-08-21T16:07:58;99639.56;;;19.28;90.87
73952;BME280;62304;47.662;18.324;2022-08-21T16:11:01;99642.19;;;19.18;90.92
73952;BME280;62304;47.662;18.324;2022-08-21T16:14:04;99648.81;;;19.12;90.99
73952;BME280;62304;47.662;18.324;2022-08-21T16:17:07;99663.41;;;19.07;91.14
73952;BME280;62304;47.662;18.324;2022-08-21T16:20:12;99662.47;;;18.98;90.91
73952;BME280;62304;47.662;18.324;2022-08-21T16:23:15;99659.59;;;18.85;91.04
73952;BME280;62304;47.662;18.324;2022-08-21T16:26:18;99666.97;;;18.79;91.09
73952;BME280;62304;47.662;18.324;2022-08-21T16:29:22;99674.19;;;18.80;91.22
73952;BME280;62304;47.662;18.324;2022-08-21T16:32:25;99669.88;;;18.76;91.14
73952;BME280;62304;47.662;18.324;2022-08-21T16:35:31;99656.19;;;18.78;91.51
73952;BME280;62304;47.662;18.324;2022-08-21T16:38:34;99660.78;;;18.72;91.47
73952;BME280;62304;47.662;18.324;2022-08-21T16:41:39;99655.75;;;18.63;91.65
73952;BME280;62304;47.662;18.324;2022-08-21T16:44:42;99671.84;;;18.63;91.87
73952;BME280;62304;47.662;18.324;2022-08-21T16:47:50;99666.75;;;18.58;91.75
73952;BME280;62304;47.662;18.324;2022-08-21T16:50:55;99673.50;;;18.60;91.74
73952;BME280;62304;47.662;18.324;2022-08-21T16:54:00;99661.66;;;18.53;91.67
73952;BME280;62304;47.662;18.324;2022-08-21T16:57:03;99666.41;;;18.56;91.51
73952;BME280;62304;47.662;18.324;2022-08-21T17:00:08;99659.75;;;18.50;91.66
73952;BME280;62304;47.662;18.324;2022-08-21T17:03:16;99658.94;;;18.49;91.65
73952;BME280;62304;47.662;18.324;2022-08-21T17:06:24;99665.00;;;18.48;91.90
73952;BME280;62304;47.662;18.324;2022-08-21T17:09:30;99657.91;;;18.43;92.40
73952;BME280;62304;47.662;18.324;2022-08-21T17:12:34;99664.28;;;18.44;92.53
73952;BME280;62304;47.662;18.324;2022-08-21T17:15:38;99658.25;;;18.45;92.34
73952;BME280;62304;47.662;18.324;2022-08-21T17:18:41;99661.56;;;18.40;92.42
73952;BME280;62304;47.662;18.324;2022-08-21T17:21:45;99657.91;;;18.43;92.71
73952;BME280;62304;47.662;18.324;2022-08-21T17:24:50;99660.00;;;18.39;92.88